sensor_id;sensor_type;location;lat;lon;timestamp;temperature;humidity
23435;DHT22;11890;45.380;11.028;2022-10-17T00:00:47;18.90;99.90
23435;DHT22;11890;45.380;11.028;2022-10-17T00:03:15;18.90;99.90
23435;DHT22;11890;45.380;11.028;2022-10-17T00:05:46;18.90;99.90
23435;DHT22;11890;45.380;11.028;2022-10-17T00:08:16;18.90;99.90
23435;DHT22;11890;45.380;11.028;2022-10-17T00:10:44;18.90;99.90
23435;DHT22;11890;45.380;11.028;2022-10-17T00:13:12;18.80;99.90
23435;DHT22;11890;45.380;11.028;2022-10-17T00:15:43;18.80;99.90
23435;DHT22;11890;45.380;11.028;2022-10-17T00:18:11;18.80;99.90
23435;DHT22;11890;45.380;11.028;2022-10-17T00:20:39;18.80;99.90
23435;DHT22;11890;45.380;11.028;2022-10-17T00:23:07;18.80;99.90
23435;DHT22;11890;45.380;11.028;2022-10-17T00:25:34;18.80;99.90
23435;DHT22;11890;45.380;11.028;2022-10-17T00:28:03;18.80;99.90
23435;DHT22;11890;45.380;11.028;2022-10-17T00:30:30;18.80;99.90
23435;DHT22;11890;45.380;11.028;2022-10-17T00:32:58;18.80;99.90
23435;DHT22;11890;45.380;11.028;2022-10-17T00:35:26;18.80;99.90
23435;DHT22;11890;45.380;11.028;2022-10-17T00:37:53;18.70;99.90
23435;DHT22;11890;45.380;11.028;2022-10-17T00:40:21;18.70;99.90
23435;DHT22;11890;45.380;11.028;2022-10-17T00:42:49;18.70;99.90
23435;DHT22;11890;45.380;11.028;2022-10-17T00:45:20;18.70;99.90
23435;DHT22;11890;45.380;11.028;2022-10-17T00:48:01;18.70;99.90
23435;DHT22;11890;45.380;11.028;2022-10-17T00:50:31;18.70;99.90
23435;DHT22;11890;45.380;11.028;2022-10-17T00:53:00;18.70;99.90
23435;DHT22;11890;45.380;11.028;2022-10-17T00:55:32;18.70;99.90
23435;DHT22;11890;45.380;11.028;2022-10-17T00:58:03;18.70;99.90
23435;DHT22;11890;45.380;11.028;2022-10-17T01:00:31;18.70;99.90
23435;DHT22;11890;45.380;11.028;2022-10-17T01:02:58;18.70;99.90
23435;DHT22;11890;45.380;11.028;2022-10-17T01:05:25;18.70;99.90
23435;DHT22;11890;45.380;11.028;2022-10-17T01:07:55;18.70;99.90
23435;DHT22;11890;45.380;11.028;2022-10-17T01:10:28;18.70;99.90
23435;DHT22;11890;45.380;11.028;2022-10-17T01:15:37;18.60;99.90
23435;DHT22;11890;45.380;11.028;2022-10-17T01:18:31;18.60;99.90
23435;DHT22;11890;45.380;11.028;2022-10-17T01:40:54;18.60;99.90
23435;DHT22;11890;45.380;11.028;2022-10-17T01:43:46;18.60;99.90
23435;DHT22;11890;45.380;11.028;2022-10-17T01:46:35;18.60;99.90
23435;DHT22;11890;45.380;11.028;2022-10-17T01:49:08;18.60;99.90
23435;DHT22;11890;45.380;11.028;2022-10-17T01:51:40;18.60;99.90
23435;DHT22;11890;45.380;11.028;2022-10-17T01:54:38;18.60;99.90
23435;DHT22;11890;45.380;11.028;2022-10-17T01:57:13;18.60;99.90
23435;DHT22;11890;45.380;11.028;2022-10-17T01:59:44;18.60;99.90
23435;DHT22;11890;45.380;11.028;2022-10-17T02:02:13;18.60;99.90
23435;DHT22;11890;45.380;11.028;2022-10-17T02:04:46;18.50;99.90
23435;DHT22;11890;45.380;11.028;2022-10-17T02:07:15;18.50;99.90
23435;DHT22;11890;45.380;11.028;2022-10-17T02:09:42;18.50;99.90
23435;DHT22;11890;45.380;11.028;2022-10-17T02:12:50;18.50;99.90
23435;DHT22;11890;45.380;11.028;2022-10-17T02:23:52;18.50;99.90
23435;DHT22;11890;45.380;11.028;2022-10-17T02:26:32;18.50;99.90
23435;DHT22;11890;45.380;11.028;2022-10-17T02:29:18;18.50;99.90
23435;DHT22;11890;45.380;11.028;2022-10-17T02:31:53;18.50;99.90
23435;DHT22;11890;45.380;11.028;2022-10-17T02:34:28;18.50;99.90
23435;DHT22;11890;45.380;11.028;2022-10-17T02:37:02;18.40;99.90
23435;DHT22;11890;45.380;11.028;2022-10-17T02:39:31;18.40;99.90
23435;DHT22;11890;45.380;11.028;2022-10-17T02:42:02;18.40;99.90
23435;DHT22;11890;45.380;11.028;2022-10-17T02:44:31;18.40;99.90
23435;DHT22;11890;45.380;11.028;2022-10-17T02:49:46;18.40;99.90
23435;DHT22;11890;45.380;11.028;2022-10-17T02:55:08;18.40;99.90
23435;DHT22;11890;45.380;11.028;2022-10-17T02:57:41;18.40;99.90
23435;DHT22;11890;45.380;11.028;2022-10-17T03:00:14;18.40;99.90
23435;DHT22;11890;45.380;11.028;2022-10-17T03:02:47;18.40;99.90
23435;DHT22;11890;45.380;11.028;2022-10-17T03:05:21;18.40;99.90
23435;DHT22;11890;45.380;11.028;2022-10-17T03:07:49;18.40;99.90
23435;DHT22;11890;45.380;11.028;2022-10-17T03:10:17;18.30;99.90
23435;DHT22;11890;45.380;11.028;2022-10-17T03:12:45;18.30;99.90
23435;DHT22;11890;45.380;11.028;2022-10-17T03:15:13;18.30;99.90
23435;DHT22;11890;45.380;11.028;2022-10-17T03:17:41;18.20;99.90
23435;DHT22;11890;45.380;11.028;2022-10-17T03:20:09;18.20;99.90
23435;DHT22;11890;45.380;11.028;2022-10-17T03:22:37;18.10;99.90
23435;DHT22;11890;45.380;11.028;2022-10-17T03:25:05;18.10;99.90
23435;DHT22;11890;45.380;11.028;2022-10-17T03:27:35;18.10;99.90
23435;DHT22;11890;45.380;11.028;2022-10-17T03:30:05;18.10;99.90
23435;DHT22;11890;45.380;11.028;2022-10-17T03:32:34;18.10;99.90
23435;DHT22;11890;45.380;11.028;2022-10-17T03:35:02;18.10;99.90
23435;DHT22;11890;45.380;11.028;2022-10-17T03:37:29;18.00;99.90
23435;DHT22;11890;45.380;11.028;2022-10-17T03:39:58;18.00;99.90
23435;DHT22;11890;45.380;11.028;2022-10-17T03:42:25;18.00;99.90
23435;DHT22;11890;45.380;11.028;2022-10-17T03:44:53;18.00;99.90
23435;DHT22;11890;45.380;11.028;2022-10-17T03:47:20;18.00;99.90
23435;DHT22;11890;45.380;11.028;2022-10-17T03:49:48;17.90;99.90
23435;DHT22;11890;45.380;11.028;2022-10-17T03:52:15;17.90;99.90
23435;DHT22;11890;45.380;11.028;2022-10-17T03:54:42;17.80;99.90
23435;DHT22;11890;45.380;11.028;2022-10-17T03:57:10;17.80;99.90
23435;DHT22;11890;45.380;11.028;2022-10-17T03:59:37;17.80;99.90
23435;DHT22;11890;45.380;11.028;2022-10-17T04:02:11;17.80;99.90
23435;DHT22;11890;45.380;11.028;2022-10-17T04:04:38;17.70;99.90
23435;DHT22;11890;45.380;11.028;2022-10-17T04:07:06;17.70;99.90
23435;DHT22;11890;45.380;11.028;2022-10-17T04:09:36;17.70;99.90
23435;DHT22;11890;45.380;11.028;2022-10-17T04:12:21;17.70;99.90
23435;DHT22;11890;45.380;11.028;2022-10-17T04:14:49;17.70;99.90
23435;DHT22;11890;45.380;11.028;2022-10-17T04:17:16;17.70;99.90
23435;DHT22;11890;45.380;11.028;2022-10-17T04:19:48;17.70;99.90
23435;DHT22;11890;45.380;11.028;2022-10-17T04:22:17;17.70;99.90
23435;DHT22;11890;45.380;11.028;2022-10-17T04:24:44;17.70;99.90
23435;DHT22;11890;45.380;11.028;2022-10-17T04:27:38;17.70;99.90
23435;DHT22;11890;45.380;11.028;2022-10-17T04:30:06;17.60;99.90
23435;DHT22;11890;45.380;11.028;2022-10-17T04:32:37;17.60;99.90
23435;DHT22;11890;45.380;11.028;2022-10-17T04:35:19;17.60;99.90
23435;DHT22;11890;45.380;11.028;2022-10-17T04:37:53;17.60;99.90
23435;DHT22;11890;45.380;11.028;2022-10-17T04:40:20;17.60;99.90
23435;DHT22;11890;45.380;11.028;2022-10-17T04:42:50;17.60;99.90
23435;DHT22;11890;45.380;11.028;2022-10-17T04:45:26;17.60;99.90
23435;DHT22;11890;45.380;11.028;2022-10-17T04:47:59;17.60;99.90
23435;DHT22;11890;45.380;11.028;2022-10-17T04:50:27;17.60;99.90
23435;DHT22;11890;45.380;11.028;2022-10-17T04:53:25;17.60;99.90
23435;DHT22;11890;45.380;11.028;2022-10-17T04:55:53;17.50;99.90
23435;DHT22;11890;45.380;11.028;2022-10-17T04:58:21;17.50;99.90
23435;DHT22;11890;45.380;11.028;2022-10-17T05:00:50;17.50;99.90
23435;DHT22;11890;45.380;11.028;2022-10-17T05:03:25;17.50;99.90
23435;DHT22;11890;45.380;11.028;2022-10-17T05:05:55;17.50;99.90
23435;DHT22;11890;45.380;11.028;2022-10-17T05:08:22;17.50;99.90
23435;DHT22;11890;45.380;11.028;2022-10-17T05:10:50;17.50;99.90
23435;DHT22;11890;45.380;11.028;2022-10-17T05:13:19;17.50;99.90
23435;DHT22;11890;45.380;11.028;2022-10-17T05:15:46;17.50;99.90
23435;DHT22;11890;45.380;11.028;2022-10-17T05:18:15;17.40;99.90
23435;DHT22;11890;45.380;11.028;2022-10-17T05:20:43;17.40;99.90
23435;DHT22;11890;45.380;11.028;2022-10-17T05:23:14;17.40;99.90
23435;DHT22;11890;45.380;11.028;2022-10-17T05:25:42;17.40;99.90
23435;DHT22;11890;45.380;11.028;2022-10-17T05:28:10;17.40;99.90
23435;DHT22;11890;45.380;11.028;2022-10-17T05:30:40;17.40;99.90
23435;DHT22;11890;45.380;11.028;2022-10-17T05:33:08;17.40;99.90
23435;DHT22;11890;45.380;11.028;2022-10-17T05:35:38;17.40;99.90
23435;DHT22;11890;45.380;11.028;2022-10-17T05:38:06;17.50;99.90
23435;DHT22;11890;45.380;11.028;2022-10-17T05:40:34;17.50;99.90
23435;DHT22;11890;45.380;11.028;2022-10-17T05:43:02;17.60;99.90
23435;DHT22;11890;45.380;11.028;2022-10-17T05:45:30;17.50;99.90
23435;DHT22;11890;45.380;11.028;2022-10-17T05:47:58;17.50;99.90
23435;DHT22;11890;45.380;11.028;2022-10-17T05:50:25;17.50;99.90
23435;DHT22;11890;45.380;11.028;2022-10-17T05:53:07;17.50;99.90
23435;DHT22;11890;45.380;11.028;2022-10-17T05:55:40;17.50;99.90
23435;DHT22;11890;45.380;11.028;2022-10-17T05:58:07;17.60;99.90
23435;DHT22;11890;45.380;11.028;2022-10-17T06:01:00;17.50;99.90
23435;DHT22;11890;45.380;11.028;2022-10-17T06:03:29;17.50;99.90
23435;DHT22;11890;45.380;11.028;2022-10-17T06:06:11;17.60;99.90
23435;DHT22;11890;45.380;11.028;2022-10-17T06:08:43;17.60;99.90
23435;DHT22;11890;45.380;11.028;2022-10-17T06:11:14;17.60;99.90
23435;DHT22;11890;45.380;11.028;2022-10-17T06:13:41;17.60;99.90
23435;DHT22;11890;45.380;11.028;2022-10-17T06:16:14;17.60;99.90
23435;DHT22;11890;45.380;11.028;2022-10-17T06:18:41;17.60;99.90
23435;DHT22;11890;45.380;11.028;2022-10-17T06:21:10;17.50;99.90
23435;DHT22;11890;45.380;11.028;2022-10-17T06:23:43;17.50;99.90
23435;DHT22;11890;45.380;11.028;2022-10-17T06:26:18;17.60;99.90
23435;DHT22;11890;45.380;11.028;2022-10-17T06:28:47;17.70;99.90
23435;DHT22;11890;45.380;11.028;2022-10-17T06:31:16;17.60;99.90
23435;DHT22;11890;45.380;11.028;2022-10-17T06:33:43;17.70;99.90
23435;DHT22;11890;45.380;11.028;2022-10-17T06:36:12;17.70;99.90
23435;DHT22;11890;45.380;11.028;2022-10-17T06:38:40;17.70;99.90
23435;DHT22;11890;45.380;11.028;2022-10-17T06:41:16;17.70;99.90
23435;DHT22;11890;45.380;11.028;2022-10-17T06:43:46;17.80;99.90
23435;DHT22;11890;45.380;11.028;2022-10-17T06:46:28;17.80;99.90
23435;DHT22;11890;45.380;11.028;2022-10-17T06:49:08;17.90;99.90
23435;DHT22;11890;45.380;11.028;2022-10-17T06:51:42;17.90;99.90
23435;DHT22;11890;45.380;11.028;2022-10-17T06:54:12;17.90;99.90
23435;DHT22;11890;45.380;11.028;2022-10-17T06:56:48;18.00;99.90
23435;DHT22;11890;45.380;11.028;2022-10-17T06:59:48;18.00;99.90
23435;DHT22;11890;45.380;11.028;2022-10-17T07:02:20;18.10;99.90
23435;DHT22;11890;45.380;11.028;2022-10-17T07:04:50;18.10;99.90
23435;DHT22;11890;45.380;11.028;2022-10-17T07:07:18;18.20;99.90
23435;DHT22;11890;45.380;11.028;2022-10-17T07:09:50;18.20;99.90
23435;DHT22;11890;45.380;11.028;2022-10-17T07:12:19;18.30;99.90
23435;DHT22;11890;45.380;11.028;2022-10-17T07:14:46;18.30;99.90
23435;DHT22;11890;45.380;11.028;2022-10-17T07:17:16;18.30;99.90
23435;DHT22;11890;45.380;11.028;2022-10-17T07:19:45;18.40;99.90
23435;DHT22;11890;45.380;11.028;2022-10-17T07:22:13;18.50;99.90
23435;DHT22;11890;45.380;11.028;2022-10-17T07:24:44;18.50;99.90
23435;DHT22;11890;45.380;11.028;2022-10-17T07:27:23;18.60;99.90
23435;DHT22;11890;45.380;11.028;2022-10-17T07:29:51;18.70;99.90
23435;DHT22;11890;45.380;11.028;2022-10-17T07:32:54;18.80;99.90
23435;DHT22;11890;45.380;11.028;2022-10-17T07:35:21;18.80;99.90
23435;DHT22;11890;45.380;11.028;2022-10-17T07:37:50;18.80;99.90
23435;DHT22;11890;45.380;11.028;2022-10-17T07:40:19;18.80;99.90
23435;DHT22;11890;45.380;11.028;2022-10-17T07:42:47;18.90;99.90
23435;DHT22;11890;45.380;11.028;2022-10-17T07:45:15;19.00;99.90
23435;DHT22;11890;45.380;11.028;2022-10-17T07:47:43;19.00;99.90
23435;DHT22;11890;45.380;11.028;2022-10-17T07:50:14;19.10;99.90
23435;DHT22;11890;45.380;11.028;2022-10-17T07:52:41;19.20;99.90
23435;DHT22;11890;45.380;11.028;2022-10-17T07:55:09;19.30;99.90
23435;DHT22;11890;45.380;11.028;2022-10-17T07:57:40;19.40;99.90
23435;DHT22;11890;45.380;11.028;2022-10-17T08:00:08;19.50;99.90
23435;DHT22;11890;45.380;11.028;2022-10-17T08:02:38;19.50;99.90
23435;DHT22;11890;45.380;11.028;2022-10-17T08:05:06;19.60;99.90
23435;DHT22;11890;45.380;11.028;2022-10-17T08:07:33;19.70;99.90
23435;DHT22;11890;45.380;11.028;2022-10-17T08:10:01;19.80;99.90
23435;DHT22;11890;45.380;11.028;2022-10-17T08:12:28;19.80;99.90
23435;DHT22;11890;45.380;11.028;2022-10-17T08:15:00;19.90;99.90
23435;DHT22;11890;45.380;11.028;2022-10-17T08:17:27;20.00;99.90
23435;DHT22;11890;45.380;11.028;2022-10-17T08:19:54;20.00;99.90
23435;DHT22;11890;45.380;11.028;2022-10-17T08:22:22;20.10;99.90
23435;DHT22;11890;45.380;11.028;2022-10-17T08:24:49;20.20;99.90
23435;DHT22;11890;45.380;11.028;2022-10-17T08:27:17;20.20;99.90
23435;DHT22;11890;45.380;11.028;2022-10-17T08:29:53;20.20;99.90
23435;DHT22;11890;45.380;11.028;2022-10-17T08:32:23;20.30;99.90
23435;DHT22;11890;45.380;11.028;2022-10-17T08:34:52;20.40;99.90
23435;DHT22;11890;45.380;11.028;2022-10-17T08:37:21;20.50;99.90
23435;DHT22;11890;45.380;11.028;2022-10-17T08:39:48;20.60;99.90
23435;DHT22;11890;45.380;11.028;2022-10-17T08:47:28;20.80;99.90
23435;DHT22;11890;45.380;11.028;2022-10-17T08:50:02;20.90;99.90
23435;DHT22;11890;45.380;11.028;2022-10-17T08:55:17;21.10;99.90
23435;DHT22;11890;45.380;11.028;2022-10-17T08:57:50;21.10;99.90
23435;DHT22;11890;45.380;11.028;2022-10-17T09:00:20;21.20;99.90
23435;DHT22;11890;45.380;11.028;2022-10-17T09:03:14;21.20;99.90
23435;DHT22;11890;45.380;11.028;2022-10-17T09:06:07;21.40;99.90
23435;DHT22;11890;45.380;11.028;2022-10-17T09:12:10;21.50;99.90
23435;DHT22;11890;45.380;11.028;2022-10-17T09:19:47;21.80;99.90
23435;DHT22;11890;45.380;11.028;2022-10-17T09:22:22;21.90;99.90
23435;DHT22;11890;45.380;11.028;2022-10-17T09:24:57;22.10;99.90
23435;DHT22;11890;45.380;11.028;2022-10-17T09:27:42;22.20;99.90
23435;DHT22;11890;45.380;11.028;2022-10-17T09:30:34;22.30;99.90
23435;DHT22;11890;45.380;11.028;2022-10-17T09:33:20;22.30;99.90
23435;DHT22;11890;45.380;11.028;2022-10-17T09:36:32;22.30;99.90
23435;DHT22;11890;45.380;11.028;2022-10-17T09:39:03;22.40;99.90
23435;DHT22;11890;45.380;11.028;2022-10-17T09:41:43;22.50;99.90
23435;DHT22;11890;45.380;11.028;2022-10-17T09:44:16;22.60;99.90
23435;DHT22;11890;45.380;11.028;2022-10-17T09:47:09;22.70;99.90
23435;DHT22;11890;45.380;11.028;2022-10-17T09:49:44;22.80;99.90
23435;DHT22;11890;45.380;11.028;2022-10-17T09:54:52;23.10;99.90
23435;DHT22;11890;45.380;11.028;2022-10-17T09:57:21;23.20;99.90
23435;DHT22;11890;45.380;11.028;2022-10-17T10:00:04;23.30;99.90
23435;DHT22;11890;45.380;11.028;2022-10-17T10:02:39;23.50;99.90
23435;DHT22;11890;45.380;11.028;2022-10-17T10:05:18;23.70;99.90
23435;DHT22;11890;45.380;11.028;2022-10-17T10:08:13;24.00;99.90
23435;DHT22;11890;45.380;11.028;2022-10-17T10:10:42;24.40;99.90
23435;DHT22;11890;45.380;11.028;2022-10-17T10:15:48;26.30;99.90
23435;DHT22;11890;45.380;11.028;2022-10-17T10:18:34;27.90;99.90
23435;DHT22;11890;45.380;11.028;2022-10-17T10:21:22;29.70;99.90
23435;DHT22;11890;45.380;11.028;2022-10-17T10:24:09;31.10;97.70
23435;DHT22;11890;45.380;11.028;2022-10-17T10:29:32;33.00;93.60
23435;DHT22;11890;45.380;11.028;2022-10-17T10:35:20;34.20;90.40
23435;DHT22;11890;45.380;11.028;2022-10-17T10:37:55;34.30;89.30
23435;DHT22;11890;45.380;11.028;2022-10-17T10:45:53;33.80;87.00
23435;DHT22;11890;45.380;11.028;2022-10-17T10:48:26;34.20;86.90
23435;DHT22;11890;45.380;11.028;2022-10-17T10:51:17;34.90;84.50
23435;DHT22;11890;45.380;11.028;2022-10-17T10:56:39;36.00;80.80
23435;DHT22;11890;45.380;11.028;2022-10-17T11:07:17;36.10;77.20
23435;DHT22;11890;45.380;11.028;2022-10-17T11:10:20;36.90;76.30
23435;DHT22;11890;45.380;11.028;2022-10-17T11:15:58;37.70;71.20
23435;DHT22;11890;45.380;11.028;2022-10-17T11:18:41;37.60;70.50
23435;DHT22;11890;45.380;11.028;2022-10-17T11:24:25;38.60;67.90
23435;DHT22;11890;45.380;11.028;2022-10-17T11:26:59;39.00;66.80
23435;DHT22;11890;45.380;11.028;2022-10-17T11:29:31;39.00;66.20
23435;DHT22;11890;45.380;11.028;2022-10-17T11:32:10;38.90;66.20
23435;DHT22;11890;45.380;11.028;2022-10-17T11:34:45;38.50;65.30
23435;DHT22;11890;45.380;11.028;2022-10-17T11:37:30;38.60;65.70
23435;DHT22;11890;45.380;11.028;2022-10-17T11:40:05;39.10;65.50
23435;DHT22;11890;45.380;11.028;2022-10-17T11:42:50;39.60;64.20
23435;DHT22;11890;45.380;11.028;2022-10-17T11:45:21;40.00;63.00
23435;DHT22;11890;45.380;11.028;2022-10-17T11:48:09;40.10;61.10
23435;DHT22;11890;45.380;11.028;2022-10-17T11:50:41;40.60;59.50
23435;DHT22;11890;45.380;11.028;2022-10-17T11:56:37;40.40;59.50
23435;DHT22;11890;45.380;11.028;2022-10-17T12:02:35;41.10;58.30
23435;DHT22;11890;45.380;11.028;2022-10-17T12:05:25;41.00;57.60
23435;DHT22;11890;45.380;11.028;2022-10-17T12:24:36;40.30;56.80
23435;DHT22;11890;45.380;11.028;2022-10-17T12:27:35;40.20;57.00
23435;DHT22;11890;45.380;11.028;2022-10-17T12:30:18;39.70;57.30
23435;DHT22;11890;45.380;11.028;2022-10-17T12:33:15;39.30;57.90
23435;DHT22;11890;45.380;11.028;2022-10-17T12:35:50;38.70;59.10
23435;DHT22;11890;45.380;11.028;2022-10-17T12:38:25;38.00;59.70
23435;DHT22;11890;45.380;11.028;2022-10-17T12:40:55;36.80;62.20
23435;DHT22;11890;45.380;11.028;2022-10-17T12:46:00;33.90;68.40
23435;DHT22;11890;45.380;11.028;2022-10-17T12:51:15;31.80;72.80
23435;DHT22;11890;45.380;11.028;2022-10-17T12:54:11;31.10;74.50
23435;DHT22;11890;45.380;11.028;2022-10-17T12:56:45;30.40;76.50
23435;DHT22;11890;45.380;11.028;2022-10-17T12:59:23;30.10;77.20
23435;DHT22;11890;45.380;11.028;2022-10-17T13:01:54;29.70;79.00
23435;DHT22;11890;45.380;11.028;2022-10-17T13:04:22;29.40;78.60
23435;DHT22;11890;45.380;11.028;2022-10-17T13:06:53;29.10;80.90
23435;DHT22;11890;45.380;11.028;2022-10-17T13:11:57;28.80;81.30
23435;DHT22;11890;45.380;11.028;2022-10-17T13:14:26;28.60;81.70
23435;DHT22;11890;45.380;11.028;2022-10-17T13:16:57;28.40;81.30
23435;DHT22;11890;45.380;11.028;2022-10-17T13:19:38;28.40;83.20
23435;DHT22;11890;45.380;11.028;2022-10-17T13:22:19;28.20;83.00
23435;DHT22;11890;45.380;11.028;2022-10-17T13:24:48;28.00;83.50
23435;DHT22;11890;45.380;11.028;2022-10-17T13:27:27;28.00;84.70
23435;DHT22;11890;45.380;11.028;2022-10-17T13:29:56;27.90;84.70
23435;DHT22;11890;45.380;11.028;2022-10-17T13:32:26;27.80;85.70
23435;DHT22;11890;45.380;11.028;2022-10-17T13:35:15;27.70;86.80
23435;DHT22;11890;45.380;11.028;2022-10-17T13:37:51;27.60;87.30
23435;DHT22;11890;45.380;11.028;2022-10-17T13:40:25;27.40;88.80
23435;DHT22;11890;45.380;11.028;2022-10-17T13:43:19;27.30;89.00
23435;DHT22;11890;45.380;11.028;2022-10-17T13:45:49;27.20;90.00
23435;DHT22;11890;45.380;11.028;2022-10-17T13:48:27;27.10;90.20
23435;DHT22;11890;45.380;11.028;2022-10-17T13:50:59;27.00;90.30
23435;DHT22;11890;45.380;11.028;2022-10-17T13:53:32;27.00;90.50
23435;DHT22;11890;45.380;11.028;2022-10-17T13:56:23;26.90;90.80
23435;DHT22;11890;45.380;11.028;2022-10-17T13:59:18;26.80;90.50
23435;DHT22;11890;45.380;11.028;2022-10-17T14:01:48;26.80;90.20
23435;DHT22;11890;45.380;11.028;2022-10-17T14:04:18;26.70;90.40
23435;DHT22;11890;45.380;11.028;2022-10-17T14:06:47;26.60;91.10
23435;DHT22;11890;45.380;11.028;2022-10-17T14:09:26;26.60;91.10
23435;DHT22;11890;45.380;11.028;2022-10-17T14:12:01;26.50;91.90
23435;DHT22;11890;45.380;11.028;2022-10-17T14:14:29;26.50;91.80
23435;DHT22;11890;45.380;11.028;2022-10-17T14:17:26;26.40;91.80
23435;DHT22;11890;45.380;11.028;2022-10-17T14:19:58;26.40;91.70
23435;DHT22;11890;45.380;11.028;2022-10-17T14:22:49;26.30;91.40
23435;DHT22;11890;45.380;11.028;2022-10-17T14:25:39;26.20;91.90
23435;DHT22;11890;45.380;11.028;2022-10-17T14:30:46;25.90;92.50
23435;DHT22;11890;45.380;11.028;2022-10-17T14:33:30;25.90;92.80
23435;DHT22;11890;45.380;11.028;2022-10-17T14:36:00;25.90;92.80
23435;DHT22;11890;45.380;11.028;2022-10-17T14:38:28;25.80;92.40
23435;DHT22;11890;45.380;11.028;2022-10-17T14:41:07;25.80;92.80
23435;DHT22;11890;45.380;11.028;2022-10-17T14:44:04;25.70;92.90
23435;DHT22;11890;45.380;11.028;2022-10-17T14:46:36;25.70;93.50
23435;DHT22;11890;45.380;11.028;2022-10-17T14:49:07;25.70;93.50
23435;DHT22;11890;45.380;11.028;2022-10-17T14:54:46;25.60;93.40
23435;DHT22;11890;45.380;11.028;2022-10-17T14:57:17;25.60;93.80
23435;DHT22;11890;45.380;11.028;2022-10-17T14:59:45;25.50;94.20
23435;DHT22;11890;45.380;11.028;2022-10-17T15:02:26;25.50;94.30
23435;DHT22;11890;45.380;11.028;2022-10-17T15:04:55;25.40;94.10
23435;DHT22;11890;45.380;11.028;2022-10-17T15:07:22;25.40;94.10
23435;DHT22;11890;45.380;11.028;2022-10-17T15:09:51;25.40;94.10
23435;DHT22;11890;45.380;11.028;2022-10-17T15:12:21;25.30;94.30
23435;DHT22;11890;45.380;11.028;2022-10-17T15:14:50;25.30;94.40
23435;DHT22;11890;45.380;11.028;2022-10-17T15:17:24;25.30;95.10
23435;DHT22;11890;45.380;11.028;2022-10-17T15:19:53;25.30;95.20
23435;DHT22;11890;45.380;11.028;2022-10-17T15:22:21;25.20;95.00
23435;DHT22;11890;45.380;11.028;2022-10-17T15:24:48;25.10;95.60
23435;DHT22;11890;45.380;11.028;2022-10-17T15:27:21;25.10;95.70
23435;DHT22;11890;45.380;11.028;2022-10-17T15:29:49;25.00;96.50
23435;DHT22;11890;45.380;11.028;2022-10-17T15:32:17;25.00;96.10
23435;DHT22;11890;45.380;11.028;2022-10-17T15:34:45;25.00;96.60
23435;DHT22;11890;45.380;11.028;2022-10-17T15:37:23;24.90;96.40
23435;DHT22;11890;45.380;11.028;2022-10-17T15:39:53;24.90;96.60
23435;DHT22;11890;45.380;11.028;2022-10-17T15:42:25;24.80;96.50
23435;DHT22;11890;45.380;11.028;2022-10-17T15:44:54;24.80;96.90
23435;DHT22;11890;45.380;11.028;2022-10-17T15:47:25;24.80;97.00
23435;DHT22;11890;45.380;11.028;2022-10-17T15:49:54;24.70;97.10
23435;DHT22;11890;45.380;11.028;2022-10-17T15:52:22;24.70;97.60
23435;DHT22;11890;45.380;11.028;2022-10-17T15:54:51;24.60;97.70
23435;DHT22;11890;45.380;11.028;2022-10-17T15:57:24;24.60;97.90
23435;DHT22;11890;45.380;11.028;2022-10-17T15:59:53;24.60;98.40
23435;DHT22;11890;45.380;11.028;2022-10-17T16:02:22;24.50;98.80
23435;DHT22;11890;45.380;11.028;2022-10-17T16:04:50;24.50;99.20
23435;DHT22;11890;45.380;11.028;2022-10-17T16:07:18;24.50;99.40
23435;DHT22;11890;45.380;11.028;2022-10-17T16:09:46;24.40;99.50
23435;DHT22;11890;45.380;11.028;2022-10-17T16:12:25;24.40;99.70
23435;DHT22;11890;45.380;11.028;2022-10-17T16:14:53;24.30;99.90
23435;DHT22;11890;45.380;11.028;2022-10-17T16:17:21;24.20;99.90
23435;DHT22;11890;45.380;11.028;2022-10-17T16:19:48;24.10;99.90
23435;DHT22;11890;45.380;11.028;2022-10-17T16:22:25;24.00;99.80
23435;DHT22;11890;45.380;11.028;2022-10-17T16:24:55;24.00;99.90
23435;DHT22;11890;45.380;11.028;2022-10-17T16:27:25;23.90;99.90
23435;DHT22;11890;45.380;11.028;2022-10-17T16:29:52;23.90;99.90
23435;DHT22;11890;45.380;11.028;2022-10-17T16:32:20;23.80;99.90
23435;DHT22;11890;45.380;11.028;2022-10-17T16:34:47;23.80;99.90
23435;DHT22;11890;45.380;11.028;2022-10-17T16:37:14;23.70;99.90
23435;DHT22;11890;45.380;11.028;2022-10-17T16:39:42;23.70;99.90
23435;DHT22;11890;45.380;11.028;2022-10-17T16:42:09;23.60;99.90
23435;DHT22;11890;45.380;11.028;2022-10-17T16:44:36;23.60;99.90
23435;DHT22;11890;45.380;11.028;2022-10-17T16:47:04;23.50;99.90
23435;DHT22;11890;45.380;11.028;2022-10-17T16:49:31;23.50;99.90
23435;DHT22;11890;45.380;11.028;2022-10-17T16:51:58;23.40;99.90
23435;DHT22;11890;45.380;11.028;2022-10-17T16:54:26;23.40;99.90
23435;DHT22;11890;45.380;11.028;2022-10-17T16:56:53;23.30;99.90
23435;DHT22;11890;45.380;11.028;2022-10-17T16:59:20;23.30;99.90
23435;DHT22;11890;45.380;11.028;2022-10-17T17:01:48;23.20;99.90
23435;DHT22;11890;45.380;11.028;2022-10-17T17:04:16;23.10;99.90
23435;DHT22;11890;45.380;11.028;2022-10-17T17:06:43;23.10;99.90
23435;DHT22;11890;45.380;11.028;2022-10-17T17:09:15;23.00;99.90
23435;DHT22;11890;45.380;11.028;2022-10-17T17:11:43;23.00;99.90
23435;DHT22;11890;45.380;11.028;2022-10-17T17:14:11;22.90;99.90
23435;DHT22;11890;45.380;11.028;2022-10-17T17:16:38;22.90;99.90
23435;DHT22;11890;45.380;11.028;2022-10-17T17:19:09;22.80;99.90
23435;DHT22;11890;45.380;11.028;2022-10-17T17:21:37;22.80;99.90
23435;DHT22;11890;45.380;11.028;2022-10-17T17:24:05;22.70;99.90
23435;DHT22;11890;45.380;11.028;2022-10-17T17:26:34;22.70;99.90
23435;DHT22;11890;45.380;11.028;2022-10-17T17:29:05;22.60;99.90
23435;DHT22;11890;45.380;11.028;2022-10-17T17:31:33;22.60;99.90
23435;DHT22;11890;45.380;11.028;2022-10-17T17:34:02;22.60;99.90
23435;DHT22;11890;45.380;11.028;2022-10-17T17:36:31;22.50;99.90
23435;DHT22;11890;45.380;11.028;2022-10-17T17:39:01;22.50;99.90
23435;DHT22;11890;45.380;11.028;2022-10-17T17:41:30;22.40;99.90
23435;DHT22;11890;45.380;11.028;2022-10-17T17:43:59;22.40;99.90
23435;DHT22;11890;45.380;11.028;2022-10-17T17:46:26;22.30;99.90
23435;DHT22;11890;45.380;11.028;2022-10-17T17:48:54;22.30;99.90
23435;DHT22;11890;45.380;11.028;2022-10-17T17:51:24;22.20;99.90
23435;DHT22;11890;45.380;11.028;2022-10-17T17:53:55;22.20;99.90